createdAt,value
2022-10-22T00:01:34.292Z,11.82
2022-10-22T00:04:58.356Z,11.79
2022-10-22T00:08:20.003Z,11.76
2022-10-22T00:11:42.515Z,11.75
2022-10-22T00:15:08.503Z,11.77
2022-10-22T00:18:30.141Z,11.77
2022-10-22T00:21:51.627Z,11.79
2022-10-22T00:25:13.183Z,11.77
2022-10-22T00:28:34.739Z,11.75
2022-10-22T00:31:56.696Z,11.75
2022-10-22T00:35:20.653Z,11.75
2022-10-22T00:38:45.560Z,11.76
2022-10-22T00:42:07.124Z,11.76
2022-10-22T00:45:29.507Z,11.75
2022-10-22T00:48:54.837Z,11.77
2022-10-22T00:52:16.416Z,11.73
2022-10-22T00:55:43.449Z,11.77
2022-10-22T00:59:05.098Z,11.76
2022-10-22T01:02:28.885Z,11.75
2022-10-22T01:05:58.447Z,11.75
2022-10-22T01:09:52.532Z,11.75
2022-10-22T01:13:14.018Z,11.72
2022-10-22T01:17:29.971Z,11.72
2022-10-22T01:21:00.454Z,11.73
2022-10-22T01:24:49.117Z,11.70
2022-10-22T01:28:10.663Z,11.70
2022-10-22T01:31:38.083Z,11.73
2022-10-22T01:35:09.298Z,11.72
2022-10-22T01:38:31.463Z,11.70
2022-10-22T01:41:55.977Z,11.70
2022-10-22T01:45:17.484Z,11.69
2022-10-22T01:48:48.027Z,11.69
2022-10-22T01:52:21.414Z,11.72
2022-10-22T01:55:56.104Z,11.65
2022-10-22T02:00:05.337Z,11.66
2022-10-22T02:03:38.660Z,11.63
2022-10-22T02:07:04.828Z,11.62
2022-10-22T02:10:30.748Z,11.65
2022-10-22T02:13:56.873Z,11.61
2022-10-22T02:17:21.418Z,11.61
2022-10-22T02:20:42.938Z,11.61
2022-10-22T02:24:07.205Z,11.59
2022-10-22T02:27:52.162Z,11.52
2022-10-22T02:31:19.498Z,11.45
2022-10-22T02:34:41.756Z,11.39
2022-10-22T02:38:06.432Z,11.38
2022-10-22T02:41:28.343Z,11.32
2022-10-22T02:44:49.908Z,11.35
2022-10-22T02:48:13.964Z,11.32
2022-10-22T02:51:37.774Z,11.28
2022-10-22T02:54:59.288Z,11.21
2022-10-22T02:58:20.811Z,11.21
2022-10-22T03:01:44.633Z,11.15
2022-10-22T03:05:07.109Z,11.12
2022-10-22T03:08:28.642Z,10.94
2022-10-22T03:11:50.271Z,10.91
2022-10-22T03:15:11.785Z,10.91
2022-10-22T03:18:35.426Z,10.90
2022-10-22T03:22:01.173Z,10.93
2022-10-22T03:25:27.338Z,10.90
2022-10-22T03:28:49.109Z,10.88
2022-10-22T03:32:10.679Z,10.83
2022-10-22T03:35:33.449Z,10.77
2022-10-22T03:38:55.472Z,10.74
2022-10-22T03:42:19.770Z,10.69
2022-10-22T03:45:41.299Z,10.66
2022-10-22T03:49:02.821Z,10.67
2022-10-22T03:52:24.386Z,10.64
2022-10-22T03:55:48.129Z,10.61
2022-10-22T03:59:09.719Z,10.60
2022-10-22T04:02:31.279Z,10.16
2022-10-22T04:05:52.817Z,10.05
2022-10-22T04:09:14.359Z,10.11
2022-10-22T04:12:38.395Z,10.23
2022-10-22T04:16:17.951Z,10.23
2022-10-22T04:19:41.758Z,10.26
2022-10-22T04:23:03.241Z,10.32
2022-10-22T04:26:25.182Z,10.35
2022-10-22T04:29:46.713Z,10.42
2022-10-22T04:33:08.245Z,10.38
2022-10-22T04:36:32.233Z,10.33
2022-10-22T04:39:53.853Z,10.35
2022-10-22T04:43:15.361Z,10.32
2022-10-22T04:46:37.016Z,10.33
2022-10-22T04:50:00.852Z,10.35
2022-10-22T04:53:22.386Z,10.31
2022-10-22T04:56:46.115Z,10.31
2022-10-22T05:00:08.451Z,10.28
2022-10-22T05:03:29.954Z,10.32
2022-10-22T05:06:52.189Z,10.26
2022-10-22T05:10:13.703Z,10.26
2022-10-22T05:13:37.911Z,10.25
2022-10-22T05:16:59.687Z,10.21
2022-10-22T05:20:26.255Z,10.19
2022-10-22T05:23:50.245Z,10.15
2022-10-22T05:27:11.842Z,10.16
2022-10-22T05:30:33.391Z,9.75
2022-10-22T05:33:57.649Z,9.87
2022-10-22T05:37:19.145Z,9.91
2022-10-22T05:40:48.297Z,9.99
2022-10-22T05:44:12.428Z,10.06
2022-10-22T05:47:36.266Z,10.12
2022-10-22T05:51:04.459Z,10.19
2022-10-22T05:54:29.117Z,10.29
2022-10-22T05:57:50.648Z,10.33
2022-10-22T06:01:25.464Z,10.39
2022-10-22T06:04:50.187Z,10.45
2022-10-22T06:08:18.933Z,10.46
2022-10-22T06:11:40.762Z,10.50
2022-10-22T06:15:02.446Z,10.53
2022-10-22T06:18:23.992Z,10.60
2022-10-22T06:21:45.819Z,10.61
2022-10-22T06:25:11.009Z,10.71
2022-10-22T06:28:32.827Z,10.77
2022-10-22T06:31:57.312Z,10.84
2022-10-22T06:35:18.896Z,10.88
2022-10-22T06:38:41.222Z,11.00
2022-10-22T06:42:03.047Z,11.11
2022-10-22T06:45:26.779Z,11.21
2022-10-22T06:48:52.750Z,11.35
2022-10-22T06:52:14.280Z,11.49
2022-10-22T06:55:35.913Z,11.62
2022-10-22T06:58:58.486Z,11.65
2022-10-22T07:02:20.055Z,11.62
2022-10-22T07:05:42.122Z,11.80
2022-10-22T07:09:03.899Z,12.53
2022-10-22T07:12:26.460Z,13.92
2022-10-22T07:16:01.597Z,14.60
2022-10-22T07:19:23.107Z,14.12
2022-10-22T07:22:48.944Z,13.59
2022-10-22T07:26:13.022Z,12.58
2022-10-22T07:29:34.872Z,12.42
2022-10-22T07:32:56.371Z,12.31
2022-10-22T07:36:18.166Z,13.24
2022-10-22T07:39:39.741Z,14.31
2022-10-22T07:43:02.019Z,15.44
2022-10-22T07:46:30.898Z,16.06
2022-10-22T07:49:52.487Z,16.04
2022-10-22T07:53:17.032Z,15.47
2022-10-22T07:56:43.825Z,15.87
2022-10-22T08:00:09.617Z,16.01
2022-10-22T08:03:31.559Z,16.25
2022-10-22T08:06:55.847Z,16.48
2022-10-22T08:10:17.650Z,16.50
2022-10-22T08:13:44.105Z,15.60
2022-10-22T08:17:09.472Z,15.18
2022-10-22T08:20:31.019Z,14.96
2022-10-22T08:23:54.870Z,15.15
2022-10-22T08:27:16.676Z,15.06
2022-10-22T08:30:38.695Z,15.18
2022-10-22T08:34:02.675Z,15.47
2022-10-22T08:37:28.856Z,15.29
2022-10-22T08:40:54.613Z,15.27
2022-10-22T08:44:35.008Z,15.36
2022-10-22T08:48:34.132Z,15.35
2022-10-22T08:51:59.381Z,15.09
2022-10-22T08:55:25.339Z,14.50
2022-10-22T08:58:55.959Z,14.51
2022-10-22T09:02:46.358Z,14.65
2022-10-22T09:06:25.055Z,14.77
2022-10-22T09:09:52.871Z,14.67
2022-10-22T09:13:19.700Z,14.74
2022-10-22T09:17:03.399Z,14.82
2022-10-22T09:20:35.419Z,14.85
2022-10-22T09:24:34.441Z,14.91
2022-10-22T09:27:58.669Z,14.92
2022-10-22T09:31:27.174Z,14.98
2022-10-22T09:34:49.979Z,15.05
2022-10-22T09:38:14.637Z,15.06
2022-10-22T09:41:36.650Z,15.09
2022-10-22T09:44:59.878Z,15.03
2022-10-22T09:48:30.657Z,14.88
2022-10-22T09:52:01.994Z,14.91
2022-10-22T09:55:25.437Z,14.91
2022-10-22T09:58:51.940Z,14.93
2022-10-22T10:02:33.606Z,14.92
2022-10-22T10:06:04.730Z,15.00
2022-10-22T10:09:31.688Z,15.15
2022-10-22T10:13:20.624Z,15.19
2022-10-22T10:16:59.263Z,15.13
2022-10-22T10:20:41.819Z,15.12
2022-10-22T10:24:27.770Z,15.27
2022-10-22T10:28:15.657Z,15.44
2022-10-22T10:31:40.136Z,15.29
2022-10-22T10:35:40.796Z,15.12
2022-10-22T10:39:12.737Z,15.20
2022-10-22T10:42:51.585Z,15.26
2022-10-22T10:46:33.509Z,15.25
2022-10-22T10:50:30.551Z,15.20
2022-10-22T10:54:01.670Z,15.22
2022-10-22T10:57:41.160Z,15.49
2022-10-22T11:01:42.106Z,16.32
2022-10-22T11:05:03.652Z,16.43
2022-10-22T11:08:31.485Z,16.53
2022-10-22T11:12:27.782Z,17.19
2022-10-22T11:16:00.359Z,17.17
2022-10-22T11:19:51.552Z,16.97
2022-10-22T11:23:22.607Z,16.70
2022-10-22T11:26:56.775Z,16.56
2022-10-22T11:30:24.072Z,16.33
2022-10-22T11:34:04.759Z,16.13
2022-10-22T11:37:34.963Z,16.16
2022-10-22T11:41:00.342Z,16.15
2022-10-22T11:44:25.981Z,16.25
2022-10-22T11:47:56.688Z,16.22
2022-10-22T11:51:35.491Z,16.34
2022-10-22T11:55:01.522Z,16.49
2022-10-22T11:58:28.991Z,16.94
2022-10-22T12:01:55.677Z,17.52
2022-10-22T12:05:35.093Z,18.05
2022-10-22T12:08:59.309Z,17.62
2022-10-22T12:12:21.294Z,17.89
2022-10-22T12:15:53.622Z,18.34
2022-10-22T12:19:25.024Z,18.34
2022-10-22T12:22:48.939Z,18.03
2022-10-22T12:29:58.382Z,17.55
2022-10-22T12:33:22.885Z,17.42
2022-10-22T12:36:48.261Z,17.28
2022-10-22T12:40:20.779Z,16.92
2022-10-22T12:43:42.378Z,16.77
2022-10-22T12:47:06.612Z,16.73
2022-10-22T12:50:34.208Z,16.61
2022-10-22T12:54:35.285Z,16.53
2022-10-22T12:57:56.850Z,16.45
2022-10-22T13:01:19.125Z,16.40
2022-10-22T13:04:45.528Z,16.32
2022-10-22T13:08:12.707Z,16.29
2022-10-22T13:11:39.969Z,16.26
2022-10-22T13:15:22.806Z,16.25
2022-10-22T13:18:45.127Z,16.22
2022-10-22T13:22:36.572Z,16.23
2022-10-22T13:26:14.743Z,16.19
2022-10-22T13:29:38.279Z,16.21
2022-10-22T13:33:08.026Z,16.16
2022-10-22T13:36:30.108Z,16.16
2022-10-22T13:39:51.745Z,16.16
2022-10-22T13:43:16.551Z,16.13
2022-10-22T13:46:42.634Z,16.16
2022-10-22T13:50:13.036Z,16.15
2022-10-22T13:53:36.656Z,16.12
2022-10-22T13:56:58.176Z,16.11
2022-10-22T14:00:21.639Z,16.05
2022-10-22T14:03:43.456Z,15.87
2022-10-22T14:07:13.679Z,15.77
2022-10-22T14:10:37.529Z,15.75
2022-10-22T14:13:59.577Z,15.74
2022-10-22T14:17:23.582Z,15.74
2022-10-22T14:20:45.174Z,15.68
2022-10-22T14:24:12.910Z,15.73
2022-10-22T14:27:34.999Z,15.71
2022-10-22T14:30:56.572Z,15.71
2022-10-22T14:34:18.084Z,15.70
2022-10-22T14:37:42.059Z,15.67
2022-10-22T14:41:05.867Z,15.67
2022-10-22T14:44:29.623Z,15.64
2022-10-22T14:47:52.325Z,15.60
2022-10-22T14:51:15.734Z,15.57
2022-10-22T14:54:37.248Z,15.56
2022-10-22T14:57:58.913Z,15.50
2022-10-22T15:01:20.639Z,15.49
2022-10-22T15:04:47.665Z,15.44
2022-10-22T15:08:09.263Z,15.39
2022-10-22T15:11:30.825Z,15.42
2022-10-22T15:14:55.332Z,15.40
2022-10-22T15:18:16.882Z,15.33
2022-10-22T15:21:38.451Z,15.18
2022-10-22T15:25:00.036Z,15.16
2022-10-22T15:28:23.910Z,15.16
2022-10-22T15:31:51.608Z,15.20
2022-10-22T15:35:13.133Z,15.20
2022-10-22T15:38:34.795Z,15.19
2022-10-22T15:41:56.628Z,15.05
2022-10-22T15:45:22.510Z,15.03
2022-10-22T15:48:44.726Z,14.99
2022-10-22T15:52:06.936Z,14.96
2022-10-22T15:55:28.467Z,14.98
2022-10-22T15:58:54.739Z,14.79
2022-10-22T16:02:18.775Z,14.68
2022-10-22T16:05:40.452Z,14.64
2022-10-22T16:09:09.639Z,14.64
2022-10-22T16:12:35.953Z,14.31
2022-10-22T16:15:57.477Z,14.08
2022-10-22T16:19:23.363Z,14.14
2022-10-22T16:22:44.857Z,14.10
2022-10-22T16:26:08.632Z,14.08
2022-10-22T16:29:32.485Z,13.89
2022-10-22T16:32:54.000Z,13.98
2022-10-22T16:36:18.621Z,13.64
2022-10-22T16:39:40.257Z,13.41
2022-10-22T16:43:04.298Z,13.41
2022-10-22T16:46:25.847Z,13.55
2022-10-22T16:49:50.810Z,13.53
2022-10-22T16:53:15.324Z,13.65
2022-10-22T16:56:39.098Z,13.62
2022-10-22T17:00:00.604Z,13.65
2022-10-22T17:03:24.542Z,13.68
2022-10-22T17:06:49.238Z,13.71
2022-10-22T17:10:10.840Z,13.71
2022-10-22T17:13:32.415Z,13.66
2022-10-22T17:16:54.353Z,13.51
2022-10-22T17:20:21.512Z,13.51
2022-10-22T17:23:43.285Z,13.54
2022-10-22T17:30:31.264Z,13.62
2022-10-22T17:33:54.951Z,13.61
2022-10-22T17:37:18.905Z,13.48
2022-10-22T17:40:42.935Z,13.30
2022-10-22T17:44:06.519Z,13.16
2022-10-22T17:47:32.736Z,12.92
2022-10-22T17:50:55.748Z,13.00
2022-10-22T17:54:22.184Z,13.00
2022-10-22T17:57:46.409Z,13.16
2022-10-22T18:01:16.812Z,13.44
2022-10-22T18:04:38.370Z,14.06
2022-10-22T18:08:03.183Z,14.48
2022-10-22T18:11:31.541Z,14.79
2022-10-22T18:14:53.961Z,14.92
2022-10-22T18:18:17.798Z,14.78
2022-10-22T18:21:39.325Z,14.27
2022-10-22T18:25:00.893Z,13.98
2022-10-22T18:28:22.503Z,13.76
2022-10-22T18:31:45.240Z,13.71
2022-10-22T18:35:09.897Z,13.64
2022-10-22T18:38:33.939Z,13.47
2022-10-22T18:41:57.596Z,13.38
2022-10-22T18:45:19.134Z,13.21
2022-10-22T18:48:42.892Z,13.03
2022-10-22T18:52:04.465Z,13.04
2022-10-22T18:55:28.573Z,13.21
2022-10-22T19:02:11.554Z,13.37
2022-10-22T19:05:33.078Z,13.43
2022-10-22T19:08:59.860Z,13.43
2022-10-22T19:12:21.696Z,13.21
2022-10-22T19:15:50.357Z,13.11
2022-10-22T19:19:19.664Z,12.76
2022-10-22T19:22:41.550Z,12.76
2022-10-22T19:26:12.555Z,12.93
2022-10-22T19:29:34.160Z,13.26
2022-10-22T19:32:55.711Z,13.78
2022-10-22T19:36:20.493Z,13.96
2022-10-22T19:39:41.993Z,14.51
2022-10-22T19:43:03.837Z,14.84
2022-10-22T19:46:27.899Z,14.68
2022-10-22T19:49:52.184Z,14.31
2022-10-22T19:53:16.463Z,13.99
2022-10-22T19:56:41.268Z,13.72
2022-10-22T20:00:03.144Z,13.43
2022-10-22T20:03:24.673Z,13.17
2022-10-22T20:06:46.223Z,12.90
2022-10-22T20:10:08.367Z,12.52
2022-10-22T20:13:29.899Z,12.46
2022-10-22T20:16:53.748Z,12.97
2022-10-22T20:20:15.392Z,13.17
2022-10-22T20:23:37.052Z,12.86
2022-10-22T20:26:58.600Z,12.69
2022-10-22T20:30:22.361Z,12.53
2022-10-22T20:33:46.118Z,12.49
2022-10-22T20:37:07.672Z,12.61
2022-10-22T20:40:32.342Z,12.41
2022-10-22T20:44:02.316Z,12.45
2022-10-22T20:47:34.238Z,12.49
2022-10-22T20:51:06.209Z,12.55
2022-10-22T20:54:30.780Z,12.58
2022-10-22T20:57:52.493Z,12.63
2022-10-22T21:01:21.545Z,12.61
2022-10-22T21:04:46.501Z,12.61
2022-10-22T21:08:10.336Z,12.65
2022-10-22T21:11:34.806Z,12.68
2022-10-22T21:14:56.348Z,12.70
2022-10-22T21:18:17.909Z,12.69
2022-10-22T21:21:44.207Z,12.69
2022-10-22T21:25:08.520Z,12.65
2022-10-22T21:28:32.173Z,12.65
2022-10-22T21:31:53.979Z,12.58
2022-10-22T21:35:15.633Z,12.55
2022-10-22T21:38:38.096Z,12.55
2022-10-22T21:41:59.657Z,12.52
2022-10-22T21:45:23.401Z,12.52
2022-10-22T21:48:48.067Z,12.53
2022-10-22T21:52:09.755Z,12.51
2022-10-22T21:55:35.026Z,12.48
2022-10-22T21:58:59.276Z,12.44
2022-10-22T22:05:52.159Z,12.38
2022-10-22T22:09:16.181Z,12.31
2022-10-22T22:12:37.971Z,12.18
2022-10-22T22:16:06.461Z,12.11
2022-10-22T22:19:27.913Z,12.07
2022-10-22T22:22:51.785Z,12.03
2022-10-22T22:26:17.562Z,12.01
2022-10-22T22:29:39.118Z,11.83
2022-10-22T22:33:03.334Z,11.83
2022-10-22T22:36:24.878Z,11.82
2022-10-22T22:39:46.449Z,11.83
2022-10-22T22:43:08.591Z,11.83
2022-10-22T22:46:32.846Z,11.51
2022-10-22T22:49:58.884Z,11.36
2022-10-22T22:53:20.538Z,11.45
2022-10-22T22:56:44.762Z,11.43
2022-10-22T23:00:09.185Z,11.42
2022-10-22T23:03:35.547Z,11.48
2022-10-22T23:06:57.174Z,11.43
2022-10-22T23:10:21.074Z,11.42
2022-10-22T23:13:48.284Z,11.42
2022-10-22T23:17:12.274Z,11.38
2022-10-22T23:20:37.137Z,11.40
2022-10-22T23:24:06.387Z,11.36
2022-10-22T23:27:27.970Z,11.28
2022-10-22T23:30:51.793Z,11.25
2022-10-22T23:37:46.736Z,11.28
2022-10-22T23:41:12.955Z,11.31
2022-10-22T23:44:34.517Z,11.24
2022-10-22T23:47:56.257Z,11.28
2022-10-22T23:51:20.000Z,11.32
2022-10-22T23:54:41.701Z,11.39
2022-10-22T23:58:05.691Z,11.43
